Terminal Aerodrome Forecast
Issued by NWS Detroit/Pontiac, MI

Home | Current Version | Previous Version | Text Only | Print | Product List | Glossary On
Versions: 1 2 3 4 5 6 7 8 9 10 11 12 13 14 15 16 17 18 19 20 21 22 23 24 25
000
FTUS43 KDTX 200200 AAA
TAFDTW
TAF AMD
KDTW 200215Z 2002/2106 15005KT P6SM BKN250
     FM201100 21009KT P6SM SCT150 BKN250
     FM201500 22013G21KT P6SM BKN120
     FM202200 23010KT 6SM SHRA BKN050 OVC080
     FM210300 24008KT 6SM BR BKN030 OVC050=

USA.gov is the U.S. government's official web portal to all federal, state and local government web resources and services.